Time;durP1;ratioP1;P1;durP2;ratioP2;P2;SDS_P1;SDS_P2;PMS_P1;PMS_P2;Temp;Humidity;BMP_temperature;BMP_pressure;BME280_temperature;BME280_humidity;BME280_pressure;Samples;Min_cycle;Max_cycle;Signal;HPM_P1;HPM_P2
2022/03/05 00:01:51;;;;;;;4.07;3.67;;;2.40;90.90;;;;;;624480;226;26927;-64
2022/03/05 00:04:19;;;;;;;4.72;3.95;;;2.10;91.60;;;;;;625829;225;26588;-65
2022/03/05 00:06:49;;;;;;;5.12;4.12;;;2.10;91.50;;;;;;627131;228;26511;-65
2022/03/05 00:09:17;;;;;;;4.05;3.67;;;2.10;92.10;;;;;;625342;226;26529;-65
2022/03/05 00:11:43;;;;;;;5.22;3.75;;;2.10;91.90;;;;;;628278;226;26835;-65
2022/03/05 00:14:10;;;;;;;4.85;3.90;;;2.00;91.80;;;;;;629683;226;26547;-65
2022/03/05 00:16:37;;;;;;;4.28;3.87;;;1.90;92.30;;;;;;623421;225;26816;-65
2022/03/05 00:19:04;;;;;;;4.65;4.00;;;1.80;92.50;;;;;;626327;224;26519;-65
2022/03/05 00:21:32;;;;;;;6.25;4.30;;;1.80;92.50;;;;;;626466;226;26570;-65
2022/03/05 00:23:59;;;;;;;4.65;3.75;;;1.90;92.90;;;;;;626577;226;26536;-65
2022/03/05 00:26:27;;;;;;;4.53;4.12;;;1.80;93.30;;;;;;624154;225;26611;-65
2022/03/05 00:28:55;;;;;;;3.87;3.55;;;1.70;92.80;;;;;;630460;225;26793;-65
2022/03/05 00:31:24;;;;;;;4.47;3.67;;;1.70;92.80;;;;;;625374;227;26604;-65
2022/03/05 00:33:51;;;;;;;3.90;3.45;;;1.70;93.00;;;;;;625315;226;26587;-65
2022/03/05 00:36:18;;;;;;;4.05;3.65;;;1.80;93.20;;;;;;624087;226;26560;-65
2022/03/05 00:38:46;;;;;;;4.22;3.70;;;1.70;93.20;;;;;;633772;226;26780;-65
2022/03/05 00:41:13;;;;;;;4.15;3.75;;;1.70;93.50;;;;;;626417;229;26545;-65
2022/03/05 00:43:40;;;;;;;4.47;4.07;;;1.70;93.40;;;;;;622928;230;26926;-65
2022/03/05 00:46:08;;;;;;;4.12;3.75;;;1.40;93.70;;;;;;625590;226;26584;-65
2022/03/05 00:48:36;;;;;;;3.80;3.50;;;1.40;93.70;;;;;;627342;226;26600;-65
2022/03/05 00:51:04;;;;;;;5.00;3.55;;;1.50;94.30;;;;;;626532;225;26795;-65
2022/03/05 00:53:31;;;;;;;4.00;3.70;;;1.40;94.00;;;;;;633748;225;26563;-65
2022/03/05 00:55:58;;;;;;;3.80;3.50;;;1.50;94.40;;;;;;634970;225;26548;-65
2022/03/05 00:58:25;;;;;;;4.03;3.58;;;1.40;94.50;;;;;;625821;226;26797;-65
2022/03/05 01:00:52;;;;;;;3.83;3.42;;;1.30;94.80;;;;;;623726;226;26611;-65
2022/03/05 01:03:20;;;;;;;4.97;3.67;;;1.30;94.70;;;;;;628212;225;26602;-65
2022/03/05 01:05:47;;;;;;;3.70;3.40;;;1.20;95.50;;;;;;627555;226;26600;-65
2022/03/05 01:08:14;;;;;;;5.37;3.72;;;1.10;95.40;;;;;;623083;230;26595;-65
2022/03/05 01:10:42;;;;;;;4.10;3.70;;;1.20;95.60;;;;;;624174;228;26566;-65
2022/03/05 01:13:09;;;;;;;3.65;3.35;;;1.20;95.60;;;;;;625843;225;27208;-65
2022/03/05 01:15:37;;;;;;;5.00;3.78;;;1.20;95.60;;;;;;639105;225;26563;-65
2022/03/05 01:18:05;;;;;;;4.85;4.15;;;1.10;95.60;;;;;;631594;225;26600;-65
2022/03/05 01:20:32;;;;;;;3.50;3.20;;;1.10;95.60;;;;;;624370;229;26889;-65
2022/03/05 01:23:00;;;;;;;3.90;3.37;;;1.20;95.70;;;;;;625439;228;26606;-65
2022/03/05 01:25:27;;;;;;;3.65;3.35;;;1.20;96.10;;;;;;623620;229;26801;-65
2022/03/05 01:27:55;;;;;;;3.80;3.47;;;1.30;96.20;;;;;;633469;224;26880;-65
2022/03/05 01:30:23;;;;;;;3.92;3.53;;;1.40;96.40;;;;;;630555;225;26590;-66
2022/03/05 01:32:51;;;;;;;4.18;3.30;;;1.50;95.70;;;;;;625667;229;26575;-66
2022/03/05 01:35:19;;;;;;;3.10;2.90;;;1.50;95.90;;;;;;627657;224;26867;-66
2022/03/05 01:37:46;;;;;;;3.60;3.30;;;1.50;96.00;;;;;;630158;225;26819;-66
2022/03/05 01:40:13;;;;;;;3.83;3.50;;;1.50;95.80;;;;;;628676;226;26600;-66
2022/03/05 01:42:40;;;;;;;3.90;3.60;;;1.50;96.10;;;;;;623361;226;27120;-66
2022/03/05 01:45:11;;;;;;;4.65;3.35;;;1.50;96.10;;;;;;624607;226;26589;-66
2022/03/05 01:47:38;;;;;;;4.07;3.22;;;1.50;96.10;;;;;;624026;229;26834;-66
2022/03/05 01:50:06;;;;;;;4.30;3.85;;;1.50;96.10;;;;;;624659;224;26562;-66
2022/03/05 01:52:34;;;;;;;4.05;3.15;;;1.50;96.30;;;;;;623224;226;26814;-66
2022/03/05 01:55:01;;;;;;;3.87;3.45;;;1.40;95.80;;;;;;629131;226;26574;-66
2022/03/05 01:57:28;;;;;;;3.45;3.15;;;1.30;96.00;;;;;;632679;226;26537;-66
2022/03/05 01:59:56;;;;;;;4.05;3.42;;;1.20;96.40;;;;;;630901;226;26524;-66
2022/03/05 02:02:24;;;;;;;4.37;3.45;;;1.20;96.40;;;;;;632363;226;26568;-66
2022/03/05 02:04:51;;;;;;;3.50;3.20;;;1.20;96.40;;;;;;633336;225;26929;-66
2022/03/05 02:07:18;;;;;;;4.05;3.42;;;1.20;97.10;;;;;;629723;225;26583;-66
2022/03/05 02:09:46;;;;;;;3.30;3.03;;;1.20;96.90;;;;;;636448;225;26733;-66
2022/03/05 02:12:13;;;;;;;3.97;3.58;;;1.20;96.90;;;;;;637280;225;26541;-66
2022/03/05 02:14:40;;;;;;;4.07;3.25;;;1.20;97.10;;;;;;636226;225;26828;-66
2022/03/05 02:17:08;;;;;;;3.90;3.22;;;1.20;97.60;;;;;;628603;225;26590;-66
2022/03/05 02:19:36;;;;;;;3.87;3.30;;;1.10;97.70;;;;;;633378;225;26532;-66
2022/03/05 02:22:06;;;;;;;3.58;3.28;;;1.20;97.80;;;;;;628683;225;26623;-66
2022/03/05 02:24:33;;;;;;;3.85;3.40;;;1.20;97.80;;;;;;628227;225;26594;-66
2022/03/05 02:27:02;;;;;;;3.30;3.00;;;1.20;97.80;;;;;;626649;226;26557;-66
2022/03/05 02:29:28;;;;;;;3.75;3.35;;;1.20;97.60;;;;;;636420;225;26569;-66
2022/03/05 02:31:55;;;;;;;3.30;2.90;;;1.20;97.70;;;;;;638091;225;26815;-66
2022/03/05 02:34:24;;;;;;;3.53;3.22;;;1.00;97.60;;;;;;628923;226;26549;-66
2022/03/05 02:36:51;;;;;;;4.25;3.20;;;1.10;97.70;;;;;;635848;226;26637;-66
2022/03/05 02:39:18;;;;;;;3.45;3.15;;;1.00;97.60;;;;;;631858;226;26623;-66
2022/03/05 02:41:46;;;;;;;4.15;3.50;;;1.00;97.70;;;;;;628830;224;26536;-66
2022/03/05 02:44:13;;;;;;;3.25;3.05;;;0.80;99.10;;;;;;635611;226;27239;-66
2022/03/05 02:46:41;;;;;;;3.85;3.47;;;0.80;98.80;;;;;;625842;225;27139;-66
2022/03/05 02:49:09;;;;;;;3.60;3.30;;;0.80;98.50;;;;;;626724;225;26602;-66
2022/03/05 02:51:37;;;;;;;3.60;3.30;;;0.90;98.30;;;;;;636611;225;26603;-66
2022/03/05 02:54:04;;;;;;;3.33;3.08;;;0.90;98.30;;;;;;627047;225;26797;-66
2022/03/05 02:56:31;;;;;;;4.05;3.28;;;0.90;98.40;;;;;;623511;226;26607;-66
2022/03/05 02:58:59;;;;;;;5.47;3.25;;;0.80;98.60;;;;;;623271;229;26615;-66
2022/03/05 03:01:26;;;;;;;3.42;3.00;;;0.90;98.80;;;;;;624670;226;27215;-66
2022/03/05 03:03:53;;;;;;;3.58;3.08;;;0.90;98.70;;;;;;623921;229;26629;-66
2022/03/05 03:06:22;;;;;;;3.28;2.90;;;0.80;98.80;;;;;;622959;230;26601;-66
2022/03/05 03:08:49;;;;;;;3.60;2.97;;;0.70;98.80;;;;;;623359;230;26816;-66
2022/03/05 03:11:16;;;;;;;3.10;2.80;;;0.80;99.00;;;;;;624643;226;26593;-66
2022/03/05 03:13:43;;;;;;;3.50;3.20;;;0.80;99.30;;;;;;622966;229;26826;-66
2022/03/05 03:16:12;;;;;;;3.62;3.33;;;0.70;99.30;;;;;;622917;229;26613;-67
2022/03/05 03:18:40;;;;;;;3.58;3.10;;;0.60;99.70;;;;;;625574;224;26543;-66
2022/03/05 03:21:07;;;;;;;2.78;2.58;;;0.60;99.70;;;;;;627726;226;26795;-66
2022/03/05 03:23:34;;;;;;;3.70;3.17;;;0.60;99.90;;;;;;622929;229;26604;-66
2022/03/05 03:26:01;;;;;;;4.25;3.40;;;0.70;99.80;;;;;;632972;225;27190;-67
2022/03/05 03:28:29;;;;;;;3.10;2.80;;;0.60;99.80;;;;;;634738;225;26602;-66
2022/03/05 03:30:56;;;;;;;3.62;3.35;;;0.40;99.90;;;;;;629414;226;27067;-67
2022/03/05 03:33:24;;;;;;;3.53;3.22;;;0.70;99.90;;;;;;636500;224;26567;-69
2022/03/05 03:35:52;;;;;;;3.85;3.22;;;0.70;99.90;;;;;;632089;225;26603;-68
2022/03/05 03:38:19;;;;;;;4.55;3.28;;;0.70;99.90;;;;;;626457;229;26532;-67
2022/03/05 03:40:47;;;;;;;2.87;2.58;;;0.80;99.90;;;;;;627159;229;26559;-68
2022/03/05 03:43:15;;;;;;;3.28;2.65;;;0.60;99.90;;;;;;626933;229;26550;-67
2022/03/05 03:45:42;;;;;;;3.05;2.75;;;0.60;99.90;;;;;;626869;229;26830;-67
2022/03/05 03:48:09;;;;;;;4.43;3.00;;;0.60;99.90;;;;;;626947;229;26598;-68
2022/03/05 03:50:36;;;;;;;3.37;2.75;;;0.70;99.90;;;;;;626850;229;26860;-67
2022/03/05 03:53:03;;;;;;;3.80;3.05;;;0.60;99.90;;;;;;627751;226;26582;-67
2022/03/05 03:55:31;;;;;;;4.25;3.28;;;0.70;99.90;;;;;;635636;226;26800;-67
2022/03/05 03:57:58;;;;;;;3.60;3.17;;;0.70;99.90;;;;;;635676;226;26563;-67
2022/03/05 04:00:26;;;;;;;2.83;2.53;;;0.60;99.90;;;;;;631942;226;26609;-70
2022/03/05 04:02:53;;;;;;;4.97;3.65;;;0.60;99.90;;;;;;630840;225;26572;-69
2022/03/05 04:05:21;;;;;;;4.53;3.50;;;0.70;99.90;;;;;;635646;226;26708;-67
2022/03/05 04:10:22;;;;;;;4.50;3.00;;;0.70;99.90;;;;;;623055;229;26591;-67
2022/03/05 04:12:49;;;;;;;3.55;2.95;;;0.70;99.90;;;;;;623422;226;26842;-66
2022/03/05 04:15:17;;;;;;;2.92;2.62;;;0.70;99.90;;;;;;623258;226;26609;-67
2022/03/05 04:17:44;;;;;;;3.15;2.67;;;0.60;99.90;;;;;;622790;231;27146;-66
2022/03/05 04:20:11;;;;;;;4.50;3.28;;;0.60;99.90;;;;;;625480;229;26516;-67
2022/03/05 04:22:38;;;;;;;3.10;2.78;;;0.50;99.90;;;;;;626228;229;26868;-67
2022/03/05 04:25:07;;;;;;;6.95;3.22;;;0.60;99.90;;;;;;625029;226;26527;-67
2022/03/05 04:27:34;;;;;;;3.17;2.87;;;0.60;99.90;;;;;;623662;226;26584;-67
2022/03/05 04:30:01;;;;;;;4.25;2.78;;;0.60;99.90;;;;;;628590;226;27052;-67
2022/03/05 04:32:29;;;;;;;4.80;3.30;;;0.60;99.90;;;;;;625366;226;26572;-67
2022/03/05 04:34:56;;;;;;;13.77;4.30;;;0.60;99.90;;;;;;622745;230;26584;-67
2022/03/05 04:37:24;;;;;;;8.98;3.45;;;0.60;99.90;;;;;;622945;231;26600;-67
2022/03/05 04:39:51;;;;;;;12.57;4.20;;;0.60;99.90;;;;;;622998;229;26816;-67
2022/03/05 04:42:18;;;;;;;10.57;3.87;;;0.60;99.90;;;;;;623013;229;26620;-68
2022/03/05 04:44:45;;;;;;;11.32;3.87;;;0.50;99.90;;;;;;623115;229;26502;-67
2022/03/05 04:47:13;;;;;;;14.68;3.83;;;0.30;99.90;;;;;;624445;229;26606;-67
2022/03/05 04:49:41;;;;;;;10.65;3.55;;;0.30;99.90;;;;;;624069;229;26543;-67
2022/03/05 04:52:09;;;;;;;9.98;4.10;;;0.40;99.90;;;;;;623865;229;26607;-67
2022/03/05 04:54:37;;;;;;;9.55;4.12;;;0.40;99.90;;;;;;623713;229;26771;-68
2022/03/05 04:57:04;;;;;;;9.05;3.37;;;0.30;99.90;;;;;;623610;229;26543;-67
2022/03/05 04:59:32;;;;;;;8.00;3.30;;;0.30;99.90;;;;;;623636;229;26535;-67
2022/03/05 05:02:01;;;;;;;6.37;3.62;;;0.40;99.90;;;;;;623668;229;26929;-67
2022/03/05 05:04:29;;;;;;;9.15;3.58;;;0.20;99.90;;;;;;623389;229;26574;-67
2022/03/05 05:06:57;;;;;;;10.93;3.62;;;0.20;99.90;;;;;;623344;225;26580;-67
2022/03/05 05:09:24;;;;;;;7.55;3.30;;;0.20;99.90;;;;;;623746;229;26788;-68
2022/03/05 05:11:51;;;;;;;9.50;3.50;;;0.10;99.90;;;;;;622566;229;26687;-69
2022/03/05 05:14:18;;;;;;;8.70;3.67;;;0.20;99.90;;;;;;623848;227;26816;-69
2022/03/05 05:16:45;;;;;;;7.95;3.58;;;0.30;99.90;;;;;;626433;226;26605;-68
2022/03/05 05:21:46;;;;;;;7.90;3.67;;;0.10;99.90;;;;;;624009;227;27166;-69
2022/03/05 05:24:14;;;;;;;4.53;3.35;;;0.10;99.90;;;;;;622226;230;26524;-69
2022/03/05 05:26:41;;;;;;;6.65;3.40;;;0.30;99.90;;;;;;622878;231;26544;-69
2022/03/05 05:29:09;;;;;;;4.87;3.40;;;0.20;99.90;;;;;;622886;229;26615;-69
2022/03/05 05:31:36;;;;;;;6.87;3.55;;;0.40;99.90;;;;;;622918;229;26632;-69
2022/03/05 05:34:03;;;;;;;7.47;3.35;;;0.40;99.90;;;;;;623035;229;26926;-69
2022/03/05 05:36:30;;;;;;;6.55;3.05;;;0.40;99.90;;;;;;622933;229;26579;-69
2022/03/05 05:38:57;;;;;;;7.37;3.10;;;0.40;99.90;;;;;;621862;230;26798;-69
2022/03/05 05:41:25;;;;;;;8.43;3.35;;;0.30;99.90;;;;;;622922;230;26593;-69
2022/03/05 05:43:53;;;;;;;4.05;3.00;;;0.30;99.90;;;;;;622948;229;26623;-69
2022/03/05 05:46:21;;;;;;;7.00;3.05;;;0.30;99.90;;;;;;622938;229;27235;-69
2022/03/05 05:48:48;;;;;;;6.72;3.37;;;0.40;99.90;;;;;;622973;229;26583;-68
2022/03/05 05:51:16;;;;;;;6.78;3.15;;;0.40;99.90;;;;;;622985;229;26783;-69
2022/03/05 05:53:43;;;;;;;5.72;3.30;;;0.30;99.90;;;;;;623001;229;26826;-68
2022/03/05 05:56:11;;;;;;;4.18;2.85;;;0.40;99.90;;;;;;623585;229;26632;-69
2022/03/05 05:58:39;;;;;;;4.50;3.25;;;0.30;99.90;;;;;;624435;228;26596;-68
2022/03/05 06:01:07;;;;;;;5.68;2.70;;;0.30;99.90;;;;;;624056;229;26538;-68
2022/03/05 06:03:34;;;;;;;5.47;3.10;;;0.30;99.90;;;;;;623825;229;26835;-68
2022/03/05 06:06:01;;;;;;;4.82;2.90;;;0.30;99.90;;;;;;623733;229;26541;-68
2022/03/05 06:08:28;;;;;;;4.05;2.97;;;0.30;99.90;;;;;;623537;229;26817;-69
2022/03/05 06:10:57;;;;;;;5.45;3.22;;;0.20;99.90;;;;;;623547;229;26520;-69
2022/03/05 06:13:24;;;;;;;3.80;3.10;;;0.10;99.90;;;;;;623404;229;26567;-69
2022/03/05 06:15:52;;;;;;;3.37;3.08;;;0.10;99.90;;;;;;623295;231;26623;-69
2022/03/05 06:18:19;;;;;;;3.95;2.85;;;0.00;99.90;;;;;;623325;229;26584;-68
2022/03/05 06:20:46;;;;;;;5.60;3.10;;;-0.10;99.90;;;;;;623282;229;26773;-69
2022/03/05 06:23:13;;;;;;;3.78;2.87;;;0.00;99.90;;;;;;623201;229;26591;-69
2022/03/05 06:25:40;;;;;;;4.65;3.00;;;0.00;99.90;;;;;;623302;229;27530;-69
2022/03/05 06:28:07;;;;;;;5.18;3.28;;;0.20;99.90;;;;;;623282;229;26590;-68
2022/03/05 06:30:35;;;;;;;5.18;3.10;;;0.40;99.90;;;;;;623319;229;26621;-69
2022/03/05 06:33:03;;;;;;;3.75;2.87;;;0.40;99.90;;;;;;623015;231;26591;-69
2022/03/05 06:35:31;;;;;;;3.95;3.28;;;0.40;99.80;;;;;;623001;229;26586;-69
2022/03/05 06:37:58;;;;;;;3.28;2.70;;;0.40;99.80;;;;;;622940;229;27265;-69
2022/03/05 06:40:25;;;;;;;6.15;3.10;;;0.50;99.70;;;;;;622992;229;26589;-69
2022/03/05 06:42:52;;;;;;;4.32;2.87;;;0.70;99.70;;;;;;622944;229;26839;-69
2022/03/05 06:45:20;;;;;;;5.43;2.90;;;1.10;99.00;;;;;;622997;229;26583;-69
2022/03/05 06:47:48;;;;;;;4.32;3.20;;;1.10;99.00;;;;;;623013;229;26578;-69
2022/03/05 06:50:15;;;;;;;5.45;3.05;;;1.00;98.90;;;;;;624361;229;26780;-69
2022/03/05 06:52:42;;;;;;;5.15;3.00;;;1.00;99.20;;;;;;623289;230;26626;-69
2022/03/05 06:55:13;;;;;;;4.68;2.80;;;0.90;98.70;;;;;;622990;229;27231;-69
2022/03/05 06:57:36;;;;;;;3.20;2.90;;;0.90;98.70;;;;;;622771;229;27456;-69
2022/03/05 07:00:05;;;;;;;3.33;3.00;;;1.10;98.40;;;;;;623005;229;26576;-69
2022/03/05 07:02:32;;;;;;;3.28;2.60;;;1.10;98.40;;;;;;623109;230;26615;-69
2022/03/05 07:04:59;;;;;;;3.45;2.90;;;1.00;98.60;;;;;;622974;230;26828;-69
2022/03/05 07:07:26;;;;;;;4.22;2.60;;;1.00;98.60;;;;;;623267;228;26609;-69
2022/03/05 07:09:55;;;;;;;4.35;2.92;;;1.00;98.10;;;;;;624554;230;26592;-69
2022/03/05 07:12:24;;;;;;;4.68;2.97;;;1.10;98.60;;;;;;624065;229;26576;-68
2022/03/05 07:14:50;;;;;;;6.25;3.08;;;1.10;98.60;;;;;;623807;229;26588;-69
2022/03/05 07:17:17;;;;;;;4.28;2.50;;;1.20;97.50;;;;;;623705;229;26645;-69
2022/03/05 07:19:45;;;;;;;3.87;3.17;;;1.20;97.40;;;;;;623554;229;27204;-69
2022/03/05 07:22:12;;;;;;;3.12;2.53;;;1.30;97.70;;;;;;623528;229;26563;-69
2022/03/05 07:24:40;;;;;;;4.25;2.67;;;1.40;97.40;;;;;;623592;231;26844;-69
2022/03/05 07:27:07;;;;;;;2.83;2.58;;;1.40;97.10;;;;;;623339;229;26596;-69
2022/03/05 07:29:35;;;;;;;4.03;2.80;;;1.40;97.00;;;;;;623358;229;26599;-66
2022/03/05 07:32:03;;;;;;;4.20;3.10;;;1.40;97.00;;;;;;623228;229;26932;-66
2022/03/05 07:34:29;;;;;;;4.07;2.45;;;1.50;97.10;;;;;;623259;230;26583;-65
2022/03/05 07:36:56;;;;;;;3.67;2.87;;;1.50;96.50;;;;;;623276;231;26863;-65
2022/03/05 07:39:24;;;;;;;2.97;2.75;;;1.60;96.40;;;;;;623250;229;26596;-66
2022/03/05 07:41:51;;;;;;;3.00;2.80;;;1.60;96.40;;;;;;623212;229;26583;-66
2022/03/05 07:44:19;;;;;;;4.28;2.92;;;1.70;96.30;;;;;;623159;229;26567;-65
2022/03/05 07:46:47;;;;;;;4.05;3.37;;;1.80;96.50;;;;;;622976;229;26824;-65
2022/03/05 07:49:14;;;;;;;4.10;2.78;;;1.80;96.40;;;;;;622990;229;26818;-65
2022/03/05 07:51:42;;;;;;;4.03;2.90;;;1.70;96.10;;;;;;622905;229;26585;-66
2022/03/05 07:54:10;;;;;;;3.53;2.92;;;1.80;95.80;;;;;;622967;229;26573;-66
2022/03/05 07:56:37;;;;;;;3.87;3.15;;;1.80;95.80;;;;;;622893;229;26626;-65
2022/03/05 07:59:04;;;;;;;3.45;3.05;;;1.90;95.70;;;;;;622951;230;26578;-65
2022/03/05 08:01:32;;;;;;;4.60;2.72;;;2.10;95.90;;;;;;622621;229;26812;-65
2022/03/05 08:03:59;;;;;;;4.22;3.35;;;2.10;95.90;;;;;;622923;229;26825;-65
2022/03/05 08:06:27;;;;;;;3.75;3.10;;;2.10;95.20;;;;;;622784;229;26590;-65
2022/03/05 08:08:57;;;;;;;3.85;3.15;;;2.10;94.80;;;;;;622885;231;26586;-65
2022/03/05 08:11:22;;;;;;;3.60;3.15;;;2.10;94.80;;;;;;622754;229;26627;-65
2022/03/05 08:13:50;;;;;;;4.75;2.95;;;2.20;94.60;;;;;;622956;229;26620;-65
2022/03/05 08:16:17;;;;;;;3.40;3.10;;;2.50;94.40;;;;;;622989;230;26805;-66
2022/03/05 08:18:44;;;;;;;3.80;2.75;;;2.70;95.00;;;;;;622986;229;26602;-65
2022/03/05 08:21:11;;;;;;;3.42;3.12;;;2.60;93.80;;;;;;624724;228;26811;-65
2022/03/05 08:23:39;;;;;;;2.90;2.70;;;2.60;93.60;;;;;;624138;229;26576;-65
2022/03/05 08:26:12;;;;;;;3.70;3.40;;;2.60;93.60;;;;;;623829;230;26603;-65
2022/03/05 08:28:34;;;;;;;3.62;3.17;;;2.60;93.60;;;;;;623451;229;26779;-65
2022/03/05 08:31:02;;;;;;;3.08;2.80;;;2.70;93.70;;;;;;623585;229;26532;-65
2022/03/05 08:33:30;;;;;;;3.97;3.08;;;2.80;93.00;;;;;;623603;229;26908;-65
2022/03/05 08:35:56;;;;;;;3.60;2.80;;;2.70;92.90;;;;;;623594;229;26540;-65
2022/03/05 08:38:23;;;;;;;3.00;2.70;;;2.80;92.80;;;;;;623361;229;26499;-65
2022/03/05 08:40:51;;;;;;;3.40;2.75;;;2.80;92.70;;;;;;623272;229;26588;-65
2022/03/05 08:43:19;;;;;;;3.72;2.97;;;2.90;93.50;;;;;;623224;229;26643;-65
2022/03/05 08:45:46;;;;;;;3.33;2.83;;;2.90;93.30;;;;;;623249;229;26832;-65
2022/03/05 08:48:13;;;;;;;4.05;3.22;;;2.90;92.40;;;;;;623266;230;26565;-65
2022/03/05 08:50:41;;;;;;;3.25;2.95;;;3.00;92.60;;;;;;623313;229;26827;-65
2022/03/05 08:53:09;;;;;;;4.85;3.05;;;3.10;91.70;;;;;;623195;231;27269;-65
2022/03/05 08:55:36;;;;;;;2.97;2.78;;;3.10;91.70;;;;;;623169;229;27258;-65
2022/03/05 08:58:04;;;;;;;3.47;3.00;;;3.20;91.70;;;;;;622945;230;26590;-65
2022/03/05 09:00:32;;;;;;;3.17;2.70;;;3.30;91.80;;;;;;622970;230;26598;-65
2022/03/05 09:02:59;;;;;;;3.35;2.80;;;3.30;91.80;;;;;;622907;229;26607;-65
2022/03/05 09:05:26;;;;;;;3.28;2.97;;;3.40;91.00;;;;;;622984;229;26602;-64
2022/03/05 09:07:54;;;;;;;3.22;2.75;;;3.40;91.20;;;;;;622888;229;26843;-65
2022/03/05 09:10:22;;;;;;;3.62;3.15;;;3.40;91.30;;;;;;622929;225;27312;-65
2022/03/05 09:12:50;;;;;;;3.80;2.80;;;3.50;90.30;;;;;;622886;229;26601;-65
2022/03/05 09:15:18;;;;;;;3.50;3.03;;;3.50;90.20;;;;;;622995;231;26617;-66
2022/03/05 09:17:45;;;;;;;3.12;2.90;;;3.60;89.90;;;;;;623011;229;26581;-65
2022/03/05 09:20:13;;;;;;;2.78;2.58;;;3.50;89.80;;;;;;622944;230;26779;-65
2022/03/05 09:22:40;;;;;;;3.25;2.95;;;3.70;91.70;;;;;;622912;229;26599;-65
2022/03/05 09:25:08;;;;;;;3.00;2.72;;;3.80;89.60;;;;;;622947;229;27281;-65
2022/03/05 09:27:35;;;;;;;3.33;2.97;;;3.70;90.00;;;;;;623004;231;26586;-64
2022/03/05 09:30:02;;;;;;;2.95;2.67;;;3.80;90.70;;;;;;622986;229;26829;-66
2022/03/05 09:32:30;;;;;;;4.12;3.28;;;4.00;89.30;;;;;;624500;228;26566;-66
2022/03/05 09:35:00;;;;;;;2.95;2.50;;;4.00;89.10;;;;;;624170;230;26552;-66
2022/03/05 09:37:27;;;;;;;2.75;2.55;;;4.00;88.80;;;;;;623398;229;26824;-66
2022/03/05 09:39:54;;;;;;;3.00;2.70;;;4.10;89.20;;;;;;624143;229;26567;-66
2022/03/05 09:42:22;;;;;;;3.17;2.87;;;4.20;90.80;;;;;;623946;231;26528;-66
2022/03/05 09:44:49;;;;;;;3.15;2.85;;;4.20;88.90;;;;;;623976;229;26508;-65
2022/03/05 09:47:17;;;;;;;3.47;2.83;;;4.40;90.00;;;;;;623946;229;26503;-66
2022/03/05 09:49:44;;;;;;;2.92;2.67;;;4.30;90.00;;;;;;623443;229;26531;-66
2022/03/05 09:52:11;;;;;;;3.03;2.70;;;4.40;87.10;;;;;;627552;226;26577;-66
2022/03/05 09:54:39;;;;;;;4.07;3.22;;;4.30;87.60;;;;;;635821;225;27254;-64
2022/03/05 09:57:08;;;;;;;2.95;2.75;;;4.20;87.20;;;;;;628758;226;26606;-65
2022/03/05 09:59:36;;;;;;;3.12;2.83;;;4.20;87.40;;;;;;631330;225;26904;-64
2022/03/05 10:02:05;;;;;;;3.22;2.85;;;4.40;90.00;;;;;;626669;226;26558;-64
2022/03/05 10:04:30;;;;;;;3.17;2.95;;;4.50;86.40;;;;;;624383;229;26596;-64
2022/03/05 10:07:05;;;;;;;3.03;2.78;;;4.50;86.60;;;;;;630386;225;26817;-65
2022/03/05 10:09:33;;;;;;;3.10;2.78;;;4.40;86.10;;;;;;628356;226;26614;-64
2022/03/05 10:12:01;;;;;;;3.62;3.00;;;4.60;89.70;;;;;;625861;226;26626;-64
2022/03/05 10:14:28;;;;;;;3.35;3.05;;;4.60;89.60;;;;;;625690;226;26544;-64
2022/03/05 10:17:00;;;;;;;3.45;2.92;;;4.70;87.80;;;;;;632046;225;26536;-64
2022/03/05 10:19:26;;;;;;;4.20;2.58;;;4.80;85.20;;;;;;627826;225;26764;-65
2022/03/05 10:21:55;;;;;;;3.22;2.92;;;4.80;85.20;;;;;;626836;226;26829;-64
2022/03/05 10:24:22;;;;;;;3.40;3.10;;;4.90;87.20;;;;;;625735;226;26765;-65
2022/03/05 10:26:51;;;;;;;3.55;3.00;;;5.00;85.70;;;;;;626977;226;26602;-65
2022/03/05 10:29:18;;;;;;;4.25;2.95;;;5.10;84.20;;;;;;632700;225;26818;-64
2022/03/05 10:31:56;;;;;;;3.28;3.00;;;5.30;84.40;;;;;;630566;225;26592;-65
2022/03/05 10:34:24;;;;;;;3.42;3.00;;;5.10;82.40;;;;;;627322;226;26588;-65
2022/03/05 10:36:58;;;;;;;2.72;2.53;;;5.10;82.20;;;;;;626399;226;26541;-65
2022/03/05 10:39:25;;;;;;;2.95;2.65;;;4.90;81.80;;;;;;627949;225;26583;-64
2022/03/05 10:41:52;;;;;;;4.07;3.10;;;4.80;82.20;;;;;;627617;226;26786;-64
2022/03/05 10:44:20;;;;;;;3.58;2.87;;;5.20;83.20;;;;;;627576;222;26602;-64
2022/03/05 10:46:48;;;;;;;4.15;3.22;;;5.30;81.80;;;;;;633087;225;26599;-64
2022/03/05 10:49:18;;;;;;;3.00;2.80;;;5.40;81.70;;;;;;629637;225;26561;-64
2022/03/05 10:51:49;;;;;;;3.20;2.90;;;5.40;81.50;;;;;;624329;226;26599;-65
2022/03/05 10:54:23;;;;;;;3.15;2.85;;;5.50;81.50;;;;;;626783;225;26599;-65
2022/03/05 10:56:50;;;;;;;3.45;2.85;;;5.60;80.60;;;;;;629294;226;26591;-64
2022/03/05 10:59:22;;;;;;;3.58;2.80;;;5.80;80.20;;;;;;626403;226;26789;-64
2022/03/05 11:01:45;;;;;;;2.95;2.67;;;6.10;78.90;;;;;;625975;225;26591;-64
2022/03/05 11:04:13;;;;;;;3.53;3.22;;;6.10;78.30;;;;;;629133;225;26607;-65
2022/03/05 11:06:41;;;;;;;3.37;2.83;;;6.30;77.60;;;;;;626903;225;26620;-62
2022/03/05 11:09:08;;;;;;;3.55;3.22;;;6.30;77.60;;;;;;626769;226;26805;-66
2022/03/05 11:11:37;;;;;;;3.33;3.03;;;6.50;75.80;;;;;;628037;226;26586;-64
2022/03/05 11:14:03;;;;;;;7.35;3.22;;;6.40;75.50;;;;;;627255;226;26617;-66
2022/03/05 11:16:31;;;;;;;5.47;2.90;;;6.60;76.70;;;;;;626416;226;26813;-66
2022/03/05 11:18:58;;;;;;;4.37;3.35;;;6.30;75.80;;;;;;626370;226;26577;-65
2022/03/05 11:21:28;;;;;;;5.28;3.90;;;6.20;75.80;;;;;;629830;226;26822;-65
2022/03/05 11:23:53;;;;;;;5.28;3.50;;;6.60;73.30;;;;;;624595;226;26615;-65
2022/03/05 11:26:21;;;;;;;7.95;3.42;;;6.80;73.70;;;;;;629414;225;26606;-64
2022/03/05 11:28:49;;;;;;;4.68;3.72;;;7.10;73.70;;;;;;627354;226;26534;-65
2022/03/05 11:31:19;;;;;;;3.87;3.20;;;7.00;73.60;;;;;;627553;225;26819;-66
2022/03/05 11:33:46;;;;;;;6.65;3.10;;;7.00;71.50;;;;;;624545;229;26607;-66
2022/03/05 11:36:28;;;;;;;3.42;3.12;;;6.90;71.40;;;;;;628450;226;26805;-66
2022/03/05 11:39:05;;;;;;;6.37;3.83;;;6.80;70.90;;;;;;629448;225;26629;-66
2022/03/05 11:41:32;;;;;;;3.85;3.47;;;6.60;71.00;;;;;;628295;226;26897;-65
2022/03/05 11:44:12;;;;;;;4.28;3.33;;;6.50;71.60;;;;;;626223;225;26568;-65
2022/03/05 11:46:40;;;;;;;3.50;3.20;;;6.20;70.60;;;;;;628738;225;26532;-65
2022/03/05 11:49:07;;;;;;;3.50;3.25;;;6.30;70.60;;;;;;624133;229;26612;-65
2022/03/05 11:51:35;;;;;;;4.97;3.28;;;6.40;70.60;;;;;;627168;226;26564;-65
2022/03/05 11:54:05;;;;;;;3.45;3.15;;;6.40;70.60;;;;;;627726;224;26783;-66
2022/03/05 11:56:31;;;;;;;3.37;2.87;;;6.60;69.60;;;;;;631771;225;26598;-66
2022/03/05 11:58:58;;;;;;;3.53;3.15;;;6.70;69.20;;;;;;628361;225;27006;-65
2022/03/05 12:01:32;;;;;;;4.87;3.05;;;7.10;68.80;;;;;;627666;225;26592;-65
2022/03/05 12:04:03;;;;;;;4.55;3.25;;;7.40;66.80;;;;;;628781;225;26849;-65
2022/03/05 12:06:26;;;;;;;6.18;3.42;;;7.50;66.30;;;;;;628351;226;26518;-65
2022/03/05 12:08:54;;;;;;;3.15;2.85;;;7.60;66.30;;;;;;626788;226;26507;-66
2022/03/05 12:11:22;;;;;;;3.87;3.10;;;7.50;66.20;;;;;;626047;225;26512;-66
2022/03/05 12:13:54;;;;;;;6.60;3.72;;;7.30;66.50;;;;;;627220;225;26572;-65
2022/03/05 12:16:20;;;;;;;4.35;3.05;;;7.20;67.10;;;;;;628810;225;26562;-65
2022/03/05 12:18:49;;;;;;;4.85;3.47;;;6.80;66.70;;;;;;628568;225;26556;-66
2022/03/05 12:21:30;;;;;;;6.50;3.42;;;6.80;67.90;;;;;;625308;226;26576;-67
2022/03/05 12:24:07;;;;;;;5.25;3.60;;;6.80;68.00;;;;;;629515;224;26609;-66
2022/03/05 12:26:39;;;;;;;6.95;3.58;;;6.90;68.40;;;;;;626084;226;26591;-66
2022/03/05 12:29:06;;;;;;;5.55;3.70;;;6.70;69.40;;;;;;627311;225;26798;-66
2022/03/05 12:31:33;;;;;;;5.25;3.67;;;6.90;68.40;;;;;;628670;225;27156;-66
2022/03/05 12:34:01;;;;;;;6.85;3.58;;;7.50;68.20;;;;;;627490;225;26560;-62
2022/03/05 12:36:29;;;;;;;8.85;4.03;;;7.70;65.50;;;;;;628392;226;26583;-66
2022/03/05 12:38:57;;;;;;;64.22;15.45;;;7.70;65.50;;;;;;629190;225;26741;-64
2022/03/05 12:41:25;;;;;;;100.97;21.62;;;8.00;65.70;;;;;;630595;225;26547;-67
2022/03/05 12:43:54;;;;;;;114.28;25.30;;;8.20;65.80;;;;;;629911;225;26634;-66
2022/03/05 12:46:21;;;;;;;98.37;21.50;;;8.20;65.70;;;;;;625045;226;26595;-66
2022/03/05 12:48:49;;;;;;;84.97;19.92;;;7.70;63.60;;;;;;627270;225;26619;-67
2022/03/05 12:51:17;;;;;;;68.22;16.27;;;7.40;61.60;;;;;;628401;224;26546;-68
2022/03/05 12:53:45;;;;;;;69.50;15.70;;;7.20;61.80;;;;;;628929;225;26560;-68
2022/03/05 12:56:13;;;;;;;57.30;14.65;;;6.90;61.30;;;;;;625759;226;26544;-68
2022/03/05 12:58:40;;;;;;;52.60;13.60;;;6.70;61.00;;;;;;621689;230;26593;-68
2022/03/05 13:01:08;;;;;;;38.97;11.70;;;6.70;61.00;;;;;;626183;230;26535;-68
2022/03/05 13:03:35;;;;;;;42.62;12.05;;;6.50;61.70;;;;;;627351;229;26604;-68